sensor_id;sensor_type;location;lat;lon;timestamp;pressure;altitude;pressure_sealevel;temperature
69590;BMP180;56792;50.644;17.984;2023-10-13T00:00:28;99649.00;;;14.20
69590;BMP180;56792;50.644;17.984;2023-10-13T00:02:59;99651.20;;;14.20
69590;BMP180;56792;50.644;17.984;2023-10-13T00:05:29;99646.00;;;14.20
69590;BMP180;56792;50.644;17.984;2023-10-13T00:08:00;99646.40;;;14.20
69590;BMP180;56792;50.644;17.984;2023-10-13T00:10:29;99645.00;;;14.20
69590;BMP180;56792;50.644;17.984;2023-10-13T00:12:58;99645.60;;;14.20
69590;BMP180;56792;50.644;17.984;2023-10-13T00:15:41;99646.40;;;14.20
69590;BMP180;56792;50.644;17.984;2023-10-13T00:18:14;99641.60;;;14.20
69590;BMP180;56792;50.644;17.984;2023-10-13T00:20:43;99638.40;;;14.20
69590;BMP180;56792;50.644;17.984;2023-10-13T00:23:17;99642.60;;;14.20
69590;BMP180;56792;50.644;17.984;2023-10-13T00:25:49;99642.40;;;14.18
69590;BMP180;56792;50.644;17.984;2023-10-13T00:28:21;99639.20;;;14.20
69590;BMP180;56792;50.644;17.984;2023-10-13T00:30:52;99640.40;;;14.12
69590;BMP180;56792;50.644;17.984;2023-10-13T00:33:29;99644.60;;;14.10
69590;BMP180;56792;50.644;17.984;2023-10-13T00:35:59;99647.80;;;14.16
69590;BMP180;56792;50.644;17.984;2023-10-13T00:38:28;99639.60;;;14.20
69590;BMP180;56792;50.644;17.984;2023-10-13T00:40:57;99640.20;;;14.20
69590;BMP180;56792;50.644;17.984;2023-10-13T00:43:31;99639.00;;;14.20
69590;BMP180;56792;50.644;17.984;2023-10-13T00:46:03;99636.60;;;14.20
69590;BMP180;56792;50.644;17.984;2023-10-13T00:48:38;99631.20;;;14.20
69590;BMP180;56792;50.644;17.984;2023-10-13T00:51:12;99636.80;;;14.20
69590;BMP180;56792;50.644;17.984;2023-10-13T00:53:47;99643.60;;;14.20
69590;BMP180;56792;50.644;17.984;2023-10-13T00:56:16;99640.00;;;14.20
69590;BMP180;56792;50.644;17.984;2023-10-13T00:58:49;99637.20;;;14.20
69590;BMP180;56792;50.644;17.984;2023-10-13T01:01:20;99636.60;;;14.20
69590;BMP180;56792;50.644;17.984;2023-10-13T01:03:57;99637.60;;;14.20
69590;BMP180;56792;50.644;17.984;2023-10-13T01:06:28;99640.00;;;14.16
69590;BMP180;56792;50.644;17.984;2023-10-13T01:09:02;99637.20;;;14.14
69590;BMP180;56792;50.644;17.984;2023-10-13T01:11:40;99635.00;;;14.16
69590;BMP180;56792;50.644;17.984;2023-10-13T01:14:10;99631.20;;;14.14
69590;BMP180;56792;50.644;17.984;2023-10-13T01:16:40;99635.20;;;14.10
69590;BMP180;56792;50.644;17.984;2023-10-13T01:19:11;99635.40;;;14.14
69590;BMP180;56792;50.644;17.984;2023-10-13T01:21:40;99638.00;;;14.10
69590;BMP180;56792;50.644;17.984;2023-10-13T01:24:10;99636.00;;;14.10
69590;BMP180;56792;50.644;17.984;2023-10-13T01:26:43;99641.60;;;14.10
69590;BMP180;56792;50.644;17.984;2023-10-13T01:29:12;99647.20;;;14.10
69590;BMP180;56792;50.644;17.984;2023-10-13T01:31:41;99647.40;;;14.10
69590;BMP180;56792;50.644;17.984;2023-10-13T01:34:14;99654.00;;;14.10
69590;BMP180;56792;50.644;17.984;2023-10-13T01:36:50;99659.80;;;14.10
69590;BMP180;56792;50.644;17.984;2023-10-13T01:39:19;99661.80;;;14.10
69590;BMP180;56792;50.644;17.984;2023-10-13T01:41:48;99660.00;;;14.10
69590;BMP180;56792;50.644;17.984;2023-10-13T01:44:22;99658.00;;;14.10
69590;BMP180;56792;50.644;17.984;2023-10-13T01:46:51;99664.00;;;14.00
69590;BMP180;56792;50.644;17.984;2023-10-13T01:49:19;99663.20;;;14.00
69590;BMP180;56792;50.644;17.984;2023-10-13T01:51:50;99667.20;;;14.00
69590;BMP180;56792;50.644;17.984;2023-10-13T01:54:18;99659.60;;;13.98
69590;BMP180;56792;50.644;17.984;2023-10-13T01:56:49;99658.60;;;13.90
69590;BMP180;56792;50.644;17.984;2023-10-13T01:59:18;99660.80;;;13.90
69590;BMP180;56792;50.644;17.984;2023-10-13T02:01:47;99660.80;;;13.90
69590;BMP180;56792;50.644;17.984;2023-10-13T02:04:15;99656.40;;;13.90
69590;BMP180;56792;50.644;17.984;2023-10-13T02:06:48;99649.40;;;13.86
69590;BMP180;56792;50.644;17.984;2023-10-13T02:09:17;99656.00;;;13.86
69590;BMP180;56792;50.644;17.984;2023-10-13T02:11:53;99654.20;;;13.80
69590;BMP180;56792;50.644;17.984;2023-10-13T02:14:22;99653.60;;;13.80
69590;BMP180;56792;50.644;17.984;2023-10-13T02:16:53;99653.60;;;13.80
69590;BMP180;56792;50.644;17.984;2023-10-13T02:19:40;99647.80;;;13.80
69590;BMP180;56792;50.644;17.984;2023-10-13T02:22:14;99640.40;;;13.80
69590;BMP180;56792;50.644;17.984;2023-10-13T02:24:53;99639.60;;;13.80
69590;BMP180;56792;50.644;17.984;2023-10-13T02:27:25;99640.40;;;13.80
69590;BMP180;56792;50.644;17.984;2023-10-13T02:29:54;99638.20;;;13.72
69590;BMP180;56792;50.644;17.984;2023-10-13T02:32:26;99634.80;;;13.72
69590;BMP180;56792;50.644;17.984;2023-10-13T02:34:57;99633.00;;;13.70
69590;BMP180;56792;50.644;17.984;2023-10-13T02:37:33;99631.60;;;13.70
69590;BMP180;56792;50.644;17.984;2023-10-13T02:40:04;99632.00;;;13.70
69590;BMP180;56792;50.644;17.984;2023-10-13T02:42:32;99638.40;;;13.70
69590;BMP180;56792;50.644;17.984;2023-10-13T02:45:01;99635.60;;;13.70
69590;BMP180;56792;50.644;17.984;2023-10-13T02:47:31;99633.80;;;13.70
69590;BMP180;56792;50.644;17.984;2023-10-13T02:49:59;99630.20;;;13.70
69590;BMP180;56792;50.644;17.984;2023-10-13T02:52:39;99626.60;;;13.70
69590;BMP180;56792;50.644;17.984;2023-10-13T02:55:09;99623.80;;;13.70
69590;BMP180;56792;50.644;17.984;2023-10-13T02:57:41;99622.60;;;13.70
69590;BMP180;56792;50.644;17.984;2023-10-13T03:00:11;99623.60;;;13.70
69590;BMP180;56792;50.644;17.984;2023-10-13T03:02:40;99621.20;;;13.70
69590;BMP180;56792;50.644;17.984;2023-10-13T03:05:12;99625.60;;;13.70
69590;BMP180;56792;50.644;17.984;2023-10-13T03:07:41;99627.80;;;13.70
69590;BMP180;56792;50.644;17.984;2023-10-13T03:10:11;99632.00;;;13.70
69590;BMP180;56792;50.644;17.984;2023-10-13T03:12:40;99635.20;;;13.70
69590;BMP180;56792;50.644;17.984;2023-10-13T03:15:10;99642.40;;;13.70
69590;BMP180;56792;50.644;17.984;2023-10-13T03:17:42;99649.60;;;13.66
69590;BMP180;56792;50.644;17.984;2023-10-13T03:20:13;99645.80;;;13.60
69590;BMP180;56792;50.644;17.984;2023-10-13T03:22:43;99648.60;;;13.60
69590;BMP180;56792;50.644;17.984;2023-10-13T03:25:13;99652.00;;;13.56
69590;BMP180;56792;50.644;17.984;2023-10-13T03:27:50;99652.00;;;13.50
69590;BMP180;56792;50.644;17.984;2023-10-13T03:30:29;99646.60;;;13.40
69590;BMP180;56792;50.644;17.984;2023-10-13T03:33:05;99645.80;;;13.40
69590;BMP180;56792;50.644;17.984;2023-10-13T03:35:37;99646.60;;;13.36
69590;BMP180;56792;50.644;17.984;2023-10-13T03:38:10;99650.40;;;13.30
69590;BMP180;56792;50.644;17.984;2023-10-13T03:40:56;99653.80;;;13.30
69590;BMP180;56792;50.644;17.984;2023-10-13T03:43:34;99652.80;;;13.30
69590;BMP180;56792;50.644;17.984;2023-10-13T03:46:12;99659.00;;;13.26
69590;BMP180;56792;50.644;17.984;2023-10-13T03:48:41;99662.00;;;13.20
69590;BMP180;56792;50.644;17.984;2023-10-13T03:51:20;99662.60;;;13.20
69590;BMP180;56792;50.644;17.984;2023-10-13T03:53:49;99663.60;;;13.20
69590;BMP180;56792;50.644;17.984;2023-10-13T03:56:22;99659.20;;;13.20
69590;BMP180;56792;50.644;17.984;2023-10-13T03:58:56;99655.20;;;13.20
69590;BMP180;56792;50.644;17.984;2023-10-13T04:01:27;99653.00;;;13.20
69590;BMP180;56792;50.644;17.984;2023-10-13T04:04:00;99650.80;;;13.26
69590;BMP180;56792;50.644;17.984;2023-10-13T04:06:32;99653.60;;;13.30
69590;BMP180;56792;50.644;17.984;2023-10-13T04:09:20;99655.00;;;13.30
69590;BMP180;56792;50.644;17.984;2023-10-13T04:12:08;99654.80;;;13.30
69590;BMP180;56792;50.644;17.984;2023-10-13T04:14:54;99653.80;;;13.30
69590;BMP180;56792;50.644;17.984;2023-10-13T04:17:39;99654.20;;;13.30
69590;BMP180;56792;50.644;17.984;2023-10-13T04:20:12;99655.40;;;13.30
69590;BMP180;56792;50.644;17.984;2023-10-13T04:22:42;99650.80;;;13.30
69590;BMP180;56792;50.644;17.984;2023-10-13T04:25:29;99646.20;;;13.30
69590;BMP180;56792;50.644;17.984;2023-10-13T04:28:04;99643.80;;;13.30
69590;BMP180;56792;50.644;17.984;2023-10-13T04:30:44;99651.60;;;13.30
69590;BMP180;56792;50.644;17.984;2023-10-13T04:33:28;99653.80;;;13.20
69590;BMP180;56792;50.644;17.984;2023-10-13T04:36:19;99651.60;;;13.20
69590;BMP180;56792;50.644;17.984;2023-10-13T04:39:03;99655.40;;;13.20
69590;BMP180;56792;50.644;17.984;2023-10-13T04:41:39;99652.00;;;13.20
69590;BMP180;56792;50.644;17.984;2023-10-13T04:44:10;99656.20;;;13.20
69590;BMP180;56792;50.644;17.984;2023-10-13T04:47:11;99655.80;;;13.20
69590;BMP180;56792;50.644;17.984;2023-10-13T04:49:45;99657.40;;;13.20
69590;BMP180;56792;50.644;17.984;2023-10-13T04:52:20;99659.60;;;13.20
69590;BMP180;56792;50.644;17.984;2023-10-13T04:55:09;99666.60;;;13.22
69590;BMP180;56792;50.644;17.984;2023-10-13T04:57:44;99661.40;;;13.26
69590;BMP180;56792;50.644;17.984;2023-10-13T05:00:20;99663.20;;;13.30
69590;BMP180;56792;50.644;17.984;2023-10-13T05:03:07;99661.60;;;13.30
69590;BMP180;56792;50.644;17.984;2023-10-13T05:05:53;99664.40;;;13.30
69590;BMP180;56792;50.644;17.984;2023-10-13T05:08:36;99659.60;;;13.30
69590;BMP180;56792;50.644;17.984;2023-10-13T05:11:22;99658.60;;;13.24
69590;BMP180;56792;50.644;17.984;2023-10-13T05:14:21;99661.60;;;13.20
69590;BMP180;56792;50.644;17.984;2023-10-13T05:17:07;99661.80;;;13.20
69590;BMP180;56792;50.644;17.984;2023-10-13T05:19:57;99658.60;;;13.20
69590;BMP180;56792;50.644;17.984;2023-10-13T05:22:43;99665.60;;;13.10
69590;BMP180;56792;50.644;17.984;2023-10-13T05:25:30;99665.60;;;13.10
69590;BMP180;56792;50.644;17.984;2023-10-13T05:28:20;99668.40;;;13.10
69590;BMP180;56792;50.644;17.984;2023-10-13T05:31:07;99672.20;;;13.10
69590;BMP180;56792;50.644;17.984;2023-10-13T05:33:54;99675.60;;;13.02
69590;BMP180;56792;50.644;17.984;2023-10-13T05:36:41;99678.80;;;13.02
69590;BMP180;56792;50.644;17.984;2023-10-13T05:39:27;99680.00;;;13.00
69590;BMP180;56792;50.644;17.984;2023-10-13T05:42:13;99671.60;;;13.00
69590;BMP180;56792;50.644;17.984;2023-10-13T05:45:00;99674.80;;;13.00
69590;BMP180;56792;50.644;17.984;2023-10-13T05:47:43;99670.40;;;13.00
69590;BMP180;56792;50.644;17.984;2023-10-13T05:50:15;99675.80;;;13.00
69590;BMP180;56792;50.644;17.984;2023-10-13T05:53:16;99681.20;;;13.00
69590;BMP180;56792;50.644;17.984;2023-10-13T05:56:04;99679.00;;;13.00
69590;BMP180;56792;50.644;17.984;2023-10-13T05:58:50;99684.80;;;13.00
69590;BMP180;56792;50.644;17.984;2023-10-13T06:01:37;99684.20;;;13.00
69590;BMP180;56792;50.644;17.984;2023-10-13T06:04:23;99685.60;;;13.00
69590;BMP180;56792;50.644;17.984;2023-10-13T06:07:10;99686.80;;;13.06
69590;BMP180;56792;50.644;17.984;2023-10-13T06:09:56;99690.80;;;13.10
69590;BMP180;56792;50.644;17.984;2023-10-13T06:12:51;99692.60;;;13.10
69590;BMP180;56792;50.644;17.984;2023-10-13T06:15:38;99690.00;;;13.10
69590;BMP180;56792;50.644;17.984;2023-10-13T06:18:24;99689.40;;;13.20
69590;BMP180;56792;50.644;17.984;2023-10-13T06:21:10;99685.80;;;13.30
69590;BMP180;56792;50.644;17.984;2023-10-13T06:23:57;99687.40;;;13.46
69590;BMP180;56792;50.644;17.984;2023-10-13T06:26:43;99683.20;;;13.68
69590;BMP180;56792;50.644;17.984;2023-10-13T06:29:30;99692.80;;;13.90
69590;BMP180;56792;50.644;17.984;2023-10-13T06:31:59;99691.00;;;14.06
69590;BMP180;56792;50.644;17.984;2023-10-13T06:34:29;99688.40;;;14.28
69590;BMP180;56792;50.644;17.984;2023-10-13T06:37:10;99692.80;;;14.50
69590;BMP180;56792;50.644;17.984;2023-10-13T06:39:50;99694.00;;;14.70
69590;BMP180;56792;50.644;17.984;2023-10-13T06:42:19;99694.60;;;14.88
69590;BMP180;56792;50.644;17.984;2023-10-13T06:44:48;99701.80;;;15.10
69590;BMP180;56792;50.644;17.984;2023-10-13T06:47:16;99706.60;;;15.30
69590;BMP180;56792;50.644;17.984;2023-10-13T06:49:48;99709.60;;;15.60
69590;BMP180;56792;50.644;17.984;2023-10-13T06:52:18;99711.00;;;15.80
69590;BMP180;56792;50.644;17.984;2023-10-13T06:54:47;99720.00;;;16.02
69590;BMP180;56792;50.644;17.984;2023-10-13T06:57:17;99716.00;;;16.30
69590;BMP180;56792;50.644;17.984;2023-10-13T06:59:48;99718.60;;;16.50
69590;BMP180;56792;50.644;17.984;2023-10-13T07:02:17;99715.80;;;16.70
69590;BMP180;56792;50.644;17.984;2023-10-13T07:04:49;99714.40;;;16.82
69590;BMP180;56792;50.644;17.984;2023-10-13T07:07:24;99714.00;;;17.04
69590;BMP180;56792;50.644;17.984;2023-10-13T07:09:52;99714.20;;;17.30
69590;BMP180;56792;50.644;17.984;2023-10-13T07:12:23;99711.60;;;17.50
69590;BMP180;56792;50.644;17.984;2023-10-13T07:14:54;99716.20;;;17.74
69590;BMP180;56792;50.644;17.984;2023-10-13T07:17:38;99723.00;;;18.00
69590;BMP180;56792;50.644;17.984;2023-10-13T07:20:10;99721.00;;;18.20
69590;BMP180;56792;50.644;17.984;2023-10-13T07:22:43;99718.20;;;18.44
69590;BMP180;56792;50.644;17.984;2023-10-13T07:25:22;99718.60;;;18.64
69590;BMP180;56792;50.644;17.984;2023-10-13T07:27:53;99717.80;;;18.88
69590;BMP180;56792;50.644;17.984;2023-10-13T07:30:25;99715.20;;;19.10
69590;BMP180;56792;50.644;17.984;2023-10-13T07:32:54;99712.40;;;19.24
69590;BMP180;56792;50.644;17.984;2023-10-13T07:35:25;99721.20;;;19.40
69590;BMP180;56792;50.644;17.984;2023-10-13T07:37:54;99724.60;;;19.50
69590;BMP180;56792;50.644;17.984;2023-10-13T07:40:24;99722.20;;;19.70
69590;BMP180;56792;50.644;17.984;2023-10-13T07:43:07;99723.60;;;19.90
69590;BMP180;56792;50.644;17.984;2023-10-13T07:45:39;99717.20;;;20.04
69590;BMP180;56792;50.644;17.984;2023-10-13T07:48:10;99710.80;;;20.20
69590;BMP180;56792;50.644;17.984;2023-10-13T07:50:41;99710.40;;;20.40
69590;BMP180;56792;50.644;17.984;2023-10-13T07:53:09;99716.00;;;20.50
69590;BMP180;56792;50.644;17.984;2023-10-13T07:55:48;99719.60;;;20.60
69590;BMP180;56792;50.644;17.984;2023-10-13T07:58:16;99721.60;;;20.80
69590;BMP180;56792;50.644;17.984;2023-10-13T08:00:45;99716.20;;;20.90
69590;BMP180;56792;50.644;17.984;2023-10-13T08:03:21;99715.20;;;21.10
69590;BMP180;56792;50.644;17.984;2023-10-13T08:06:17;99715.40;;;21.28
69590;BMP180;56792;50.644;17.984;2023-10-13T08:08:53;99707.80;;;21.50
69590;BMP180;56792;50.644;17.984;2023-10-13T08:11:27;99712.00;;;21.60
69590;BMP180;56792;50.644;17.984;2023-10-13T08:14:01;99708.60;;;21.80
69590;BMP180;56792;50.644;17.984;2023-10-13T08:16:39;99707.80;;;21.96
69590;BMP180;56792;50.644;17.984;2023-10-13T08:19:21;99704.40;;;22.10
69590;BMP180;56792;50.644;17.984;2023-10-13T08:21:57;99704.40;;;22.30
69590;BMP180;56792;50.644;17.984;2023-10-13T08:24:27;99710.80;;;22.40
69590;BMP180;56792;50.644;17.984;2023-10-13T08:27:19;99714.20;;;22.60
69590;BMP180;56792;50.644;17.984;2023-10-13T08:30:09;99716.20;;;22.82
69590;BMP180;56792;50.644;17.984;2023-10-13T08:32:57;99712.00;;;23.00
69590;BMP180;56792;50.644;17.984;2023-10-13T08:35:27;99710.60;;;23.00
69590;BMP180;56792;50.644;17.984;2023-10-13T08:38:05;99706.00;;;23.24
69590;BMP180;56792;50.644;17.984;2023-10-13T08:40:48;99704.80;;;23.36
69590;BMP180;56792;50.644;17.984;2023-10-13T08:44:02;99696.80;;;23.50
69590;BMP180;56792;50.644;17.984;2023-10-13T08:46:33;99701.00;;;23.60
69590;BMP180;56792;50.644;17.984;2023-10-13T08:49:33;99702.20;;;23.80
69590;BMP180;56792;50.644;17.984;2023-10-13T08:52:11;99699.20;;;23.90
69590;BMP180;56792;50.644;17.984;2023-10-13T08:55:14;99698.40;;;24.04
69590;BMP180;56792;50.644;17.984;2023-10-13T08:57:57;99695.20;;;24.32
69590;BMP180;56792;50.644;17.984;2023-10-13T09:00:32;99696.60;;;24.84
69590;BMP180;56792;50.644;17.984;2023-10-13T09:03:15;99697.40;;;25.20
69590;BMP180;56792;50.644;17.984;2023-10-13T09:05:56;99693.00;;;25.74
69590;BMP180;56792;50.644;17.984;2023-10-13T09:08:34;99707.40;;;26.36
69590;BMP180;56792;50.644;17.984;2023-10-13T09:11:26;99703.60;;;27.20
69590;BMP180;56792;50.644;17.984;2023-10-13T09:13:55;99704.60;;;28.16
69590;BMP180;56792;50.644;17.984;2023-10-13T09:16:25;99709.20;;;29.22
69590;BMP180;56792;50.644;17.984;2023-10-13T09:19:08;99712.80;;;30.16
69590;BMP180;56792;50.644;17.984;2023-10-13T09:21:43;99716.80;;;30.90
69590;BMP180;56792;50.644;17.984;2023-10-13T09:24:22;99716.20;;;31.66
69590;BMP180;56792;50.644;17.984;2023-10-13T09:27:00;99717.80;;;32.60
69590;BMP180;56792;50.644;17.984;2023-10-13T09:29:30;99715.80;;;33.00
69590;BMP180;56792;50.644;17.984;2023-10-13T09:32:07;99717.00;;;32.88
69590;BMP180;56792;50.644;17.984;2023-10-13T09:34:40;99723.60;;;32.16
69590;BMP180;56792;50.644;17.984;2023-10-13T09:37:12;99718.80;;;31.40
69590;BMP180;56792;50.644;17.984;2023-10-13T09:39:49;99715.80;;;30.34
69590;BMP180;56792;50.644;17.984;2023-10-13T09:42:20;99715.60;;;29.44
69590;BMP180;56792;50.644;17.984;2023-10-13T09:44:51;99715.80;;;29.08
69590;BMP180;56792;50.644;17.984;2023-10-13T09:47:23;99712.40;;;29.10
69590;BMP180;56792;50.644;17.984;2023-10-13T09:50:01;99709.20;;;29.88
69590;BMP180;56792;50.644;17.984;2023-10-13T09:52:34;99714.80;;;30.84
69590;BMP180;56792;50.644;17.984;2023-10-13T09:55:16;99708.80;;;31.66
69590;BMP180;56792;50.644;17.984;2023-10-13T09:57:53;99705.60;;;32.52
69590;BMP180;56792;50.644;17.984;2023-10-13T10:00:31;99707.40;;;33.50
69590;BMP180;56792;50.644;17.984;2023-10-13T10:03:17;99709.20;;;34.44
69590;BMP180;56792;50.644;17.984;2023-10-13T10:06:00;99701.20;;;35.08
69590;BMP180;56792;50.644;17.984;2023-10-13T10:08:36;99699.40;;;35.36
69590;BMP180;56792;50.644;17.984;2023-10-13T10:11:36;99705.80;;;34.44
69590;BMP180;56792;50.644;17.984;2023-10-13T10:14:23;99704.20;;;33.80
69590;BMP180;56792;50.644;17.984;2023-10-13T10:17:08;99702.20;;;33.46
69590;BMP180;56792;50.644;17.984;2023-10-13T10:19:48;99696.80;;;32.56
69590;BMP180;56792;50.644;17.984;2023-10-13T10:22:28;99700.00;;;31.88
69590;BMP180;56792;50.644;17.984;2023-10-13T10:25:01;99700.40;;;31.24
69590;BMP180;56792;50.644;17.984;2023-10-13T10:27:32;99697.40;;;30.54
69590;BMP180;56792;50.644;17.984;2023-10-13T10:30:02;99692.20;;;30.04
69590;BMP180;56792;50.644;17.984;2023-10-13T10:32:36;99691.20;;;29.80
69590;BMP180;56792;50.644;17.984;2023-10-13T10:35:10;99692.20;;;29.78
69590;BMP180;56792;50.644;17.984;2023-10-13T10:37:42;99687.20;;;29.50
69590;BMP180;56792;50.644;17.984;2023-10-13T10:40:16;99678.80;;;29.40
69590;BMP180;56792;50.644;17.984;2023-10-13T10:43:01;99670.20;;;29.40
69590;BMP180;56792;50.644;17.984;2023-10-13T10:45:37;99660.40;;;29.44
69590;BMP180;56792;50.644;17.984;2023-10-13T10:48:13;99653.80;;;29.82
69590;BMP180;56792;50.644;17.984;2023-10-13T10:50:52;99653.20;;;31.26
69590;BMP180;56792;50.644;17.984;2023-10-13T10:53:22;99648.80;;;31.80
69590;BMP180;56792;50.644;17.984;2023-10-13T10:55:50;99649.40;;;32.12
69590;BMP180;56792;50.644;17.984;2023-10-13T10:58:18;99648.20;;;32.86
69590;BMP180;56792;50.644;17.984;2023-10-13T11:01:07;99650.40;;;32.90
69590;BMP180;56792;50.644;17.984;2023-10-13T11:03:38;99645.40;;;33.00
69590;BMP180;56792;50.644;17.984;2023-10-13T11:06:14;99648.00;;;33.50
69590;BMP180;56792;50.644;17.984;2023-10-13T11:08:46;99647.60;;;33.40
69590;BMP180;56792;50.644;17.984;2023-10-13T11:11:30;99650.60;;;33.00
69590;BMP180;56792;50.644;17.984;2023-10-13T11:14:03;99644.80;;;32.70
69590;BMP180;56792;50.644;17.984;2023-10-13T11:16:48;99644.20;;;32.80
69590;BMP180;56792;50.644;17.984;2023-10-13T11:19:19;99642.60;;;33.60
69590;BMP180;56792;50.644;17.984;2023-10-13T11:21:54;99640.60;;;33.60
69590;BMP180;56792;50.644;17.984;2023-10-13T11:24:23;99636.60;;;34.18
69590;BMP180;56792;50.644;17.984;2023-10-13T11:26:51;99628.40;;;35.58
69590;BMP180;56792;50.644;17.984;2023-10-13T11:29:32;99622.40;;;37.08
69590;BMP180;56792;50.644;17.984;2023-10-13T11:32:02;99619.00;;;38.34
69590;BMP180;56792;50.644;17.984;2023-10-13T11:34:30;99624.80;;;38.70
69590;BMP180;56792;50.644;17.984;2023-10-13T11:37:07;99626.60;;;37.90
69590;BMP180;56792;50.644;17.984;2023-10-13T11:40:04;99630.00;;;38.66
69590;BMP180;56792;50.644;17.984;2023-10-13T11:42:37;99624.60;;;39.26
69590;BMP180;56792;50.644;17.984;2023-10-13T11:45:11;99627.40;;;39.86
69590;BMP180;56792;50.644;17.984;2023-10-13T11:47:57;99626.60;;;40.40
69590;BMP180;56792;50.644;17.984;2023-10-13T11:50:28;99624.60;;;40.98
69590;BMP180;56792;50.644;17.984;2023-10-13T11:53:02;99618.60;;;41.00
69590;BMP180;56792;50.644;17.984;2023-10-13T11:55:35;99616.40;;;41.10
69590;BMP180;56792;50.644;17.984;2023-10-13T11:58:07;99614.60;;;41.36
69590;BMP180;56792;50.644;17.984;2023-10-13T12:00:37;99618.00;;;40.64
69590;BMP180;56792;50.644;17.984;2023-10-13T12:03:29;99613.40;;;39.24
69590;BMP180;56792;50.644;17.984;2023-10-13T12:06:15;99623.00;;;38.74
69590;BMP180;56792;50.644;17.984;2023-10-13T12:08:50;99621.00;;;38.24
69590;BMP180;56792;50.644;17.984;2023-10-13T12:11:20;99618.00;;;36.94
69590;BMP180;56792;50.644;17.984;2023-10-13T12:14:00;99613.20;;;35.38
69590;BMP180;56792;50.644;17.984;2023-10-13T12:16:44;99611.40;;;33.92
69590;BMP180;56792;50.644;17.984;2023-10-13T12:19:17;99606.40;;;32.56
69590;BMP180;56792;50.644;17.984;2023-10-13T12:21:45;99607.20;;;31.56
69590;BMP180;56792;50.644;17.984;2023-10-13T12:24:16;99603.40;;;30.74
69590;BMP180;56792;50.644;17.984;2023-10-13T12:26:58;99602.60;;;30.00
69590;BMP180;56792;50.644;17.984;2023-10-13T12:29:27;99598.80;;;29.06
69590;BMP180;56792;50.644;17.984;2023-10-13T12:31:56;99599.20;;;28.16
69590;BMP180;56792;50.644;17.984;2023-10-13T12:34:36;99590.40;;;27.58
69590;BMP180;56792;50.644;17.984;2023-10-13T12:37:22;99585.20;;;27.04
69590;BMP180;56792;50.644;17.984;2023-10-13T12:40:09;99588.60;;;26.80
69590;BMP180;56792;50.644;17.984;2023-10-13T12:42:56;99584.20;;;26.60
69590;BMP180;56792;50.644;17.984;2023-10-13T12:45:44;99581.00;;;26.40
69590;BMP180;56792;50.644;17.984;2023-10-13T12:48:31;99580.20;;;26.20
69590;BMP180;56792;50.644;17.984;2023-10-13T12:51:18;99580.60;;;25.90
69590;BMP180;56792;50.644;17.984;2023-10-13T12:54:08;99580.20;;;25.70
69590;BMP180;56792;50.644;17.984;2023-10-13T12:56:42;99574.20;;;25.80
69590;BMP180;56792;50.644;17.984;2023-10-13T12:59:11;99581.00;;;25.92
69590;BMP180;56792;50.644;17.984;2023-10-13T13:01:41;99574.60;;;25.90
69590;BMP180;56792;50.644;17.984;2023-10-13T13:04:11;99572.20;;;25.90
69590;BMP180;56792;50.644;17.984;2023-10-13T13:06:40;99568.80;;;25.70
69590;BMP180;56792;50.644;17.984;2023-10-13T13:09:09;99570.20;;;25.50
69590;BMP180;56792;50.644;17.984;2023-10-13T13:11:37;99556.60;;;25.30
69590;BMP180;56792;50.644;17.984;2023-10-13T13:14:08;99556.00;;;25.10
69590;BMP180;56792;50.644;17.984;2023-10-13T13:16:37;99553.20;;;25.18
69590;BMP180;56792;50.644;17.984;2023-10-13T13:19:06;99552.60;;;25.20
69590;BMP180;56792;50.644;17.984;2023-10-13T13:21:38;99552.40;;;25.10
69590;BMP180;56792;50.644;17.984;2023-10-13T13:24:08;99545.80;;;25.00
69590;BMP180;56792;50.644;17.984;2023-10-13T13:26:39;99545.00;;;24.78
69590;BMP180;56792;50.644;17.984;2023-10-13T13:29:08;99541.00;;;24.50
69590;BMP180;56792;50.644;17.984;2023-10-13T13:31:37;99535.60;;;24.30
69590;BMP180;56792;50.644;17.984;2023-10-13T13:34:09;99538.80;;;24.20
69590;BMP180;56792;50.644;17.984;2023-10-13T13:36:40;99534.80;;;24.00
69590;BMP180;56792;50.644;17.984;2023-10-13T13:39:12;99536.00;;;23.80
69590;BMP180;56792;50.644;17.984;2023-10-13T13:41:45;99531.40;;;23.74
69590;BMP180;56792;50.644;17.984;2023-10-13T13:44:13;99529.40;;;23.60
69590;BMP180;56792;50.644;17.984;2023-10-13T13:46:42;99526.00;;;23.60
69590;BMP180;56792;50.644;17.984;2023-10-13T13:49:10;99522.00;;;23.50
69590;BMP180;56792;50.644;17.984;2023-10-13T13:51:46;99517.20;;;23.50
69590;BMP180;56792;50.644;17.984;2023-10-13T13:54:20;99516.20;;;23.32
69590;BMP180;56792;50.644;17.984;2023-10-13T13:56:49;99514.80;;;23.20
69590;BMP180;56792;50.644;17.984;2023-10-13T13:59:17;99510.00;;;23.10
69590;BMP180;56792;50.644;17.984;2023-10-13T14:01:47;99509.00;;;23.00
69590;BMP180;56792;50.644;17.984;2023-10-13T14:04:16;99505.20;;;22.90
69590;BMP180;56792;50.644;17.984;2023-10-13T14:06:45;99511.20;;;22.80
69590;BMP180;56792;50.644;17.984;2023-10-13T14:09:13;99509.80;;;22.90
69590;BMP180;56792;50.644;17.984;2023-10-13T14:11:43;99508.40;;;22.90
69590;BMP180;56792;50.644;17.984;2023-10-13T14:14:30;99509.40;;;22.90
69590;BMP180;56792;50.644;17.984;2023-10-13T14:17:01;99496.40;;;22.70
69590;BMP180;56792;50.644;17.984;2023-10-13T14:19:35;99494.00;;;22.58
69590;BMP180;56792;50.644;17.984;2023-10-13T14:22:08;99488.40;;;22.50
69590;BMP180;56792;50.644;17.984;2023-10-13T14:24:39;99478.40;;;22.40
69590;BMP180;56792;50.644;17.984;2023-10-13T14:27:13;99479.00;;;22.40
69590;BMP180;56792;50.644;17.984;2023-10-13T14:29:45;99474.60;;;22.38
69590;BMP180;56792;50.644;17.984;2023-10-13T14:32:16;99471.80;;;22.30
69590;BMP180;56792;50.644;17.984;2023-10-13T14:34:46;99469.60;;;22.20
69590;BMP180;56792;50.644;17.984;2023-10-13T14:37:16;99464.80;;;22.10
69590;BMP180;56792;50.644;17.984;2023-10-13T14:39:54;99467.00;;;22.10
69590;BMP180;56792;50.644;17.984;2023-10-13T14:42:25;99462.20;;;22.00
69590;BMP180;56792;50.644;17.984;2023-10-13T14:44:54;99451.20;;;21.90